KCLL - College Station/East, TX, US

Issued at 2332 UTC 05 Dec 2019
Updated at 0337 UTC 06 Dec 2019
Potential Impact None Slight Moderate High
Time0253Z 06/04Z 06/05Z 06/06Z 06/07Z 06/08Z 06/09Z 06/10Z 06/11Z 06/12Z 06/13Z 06/14Z 06/15Z 06/16Z>>
Type OBS PRVL PRVL PRVL PRVL PRVL PRVL PRVL PRVL PRVL PRVL PRVL PRVL PRVL
VIS 10 >6 >6 >6 >6 >6 >6 >6 >6 >6 >6 >6 >6 >6
CIG -- 100 100 100 100 50 50 50 50 50 100 100 100 100
Cover CLR BKN BKN BKN BKN BKN BKN BKN BKN BKN BKN BKN BKN BKN
FltCat VFR VFR VFR VFR VFR VFR VFR VFR VFR VFR VFR VFR VFR VFR
WX -- -- -- -- -- -- -- -- -- -- -- -- -- --
WDir 170 180 180 180 180 200 200 200 200 200 320 320 320 320
WSpd 9 7 7 7 7 7 7 7 7 7 10 10 10 10
WGst -- -- -- -- -- -- -- -- -- -- 20 20 20 20
Raw TAF
KCLL 052332Z 0600/0624 18009KT P6SM SKC
  FM060100 17008KT P6SM BKN250
  FM060200 18007KT P6SM BKN100
  FM060800 20007KT P6SM BKN050
  FM061300 32010G20KT P6SM BKN100
  FM061800 33014KT P6SM SKC


Raw METAR
KCLL 060253Z AUTO 17009KT 10SM CLR 20/15 A2998 RMK AO2 SLP149 T02000150 53012
KCLL 060153Z 17010KT 10SM CLR 21/15 A2996 RMK AO2 SLP144 T02060150 $
KCLL 060053Z 17008KT 10SM CLR 21/15 A2996 RMK AO2 SLP141 T02110150 $

METAR Board
Radar Display
Forecast Discussion
For situational awareness. Not to be used for flight planning purposes.